sensor_id;sensor_type;location;lat;lon;timestamp;temperature;humidity
66962;HTU21D;53897;51.126;5.868;2022-07-22T00:01:09;26.11;51.28
66962;HTU21D;53897;51.126;5.868;2022-07-22T00:03:35;26.10;51.28
66962;HTU21D;53897;51.126;5.868;2022-07-22T00:06:01;26.11;51.24
66962;HTU21D;53897;51.126;5.868;2022-07-22T00:08:27;26.11;51.23
66962;HTU21D;53897;51.126;5.868;2022-07-22T00:10:53;26.10;51.21
66962;HTU21D;53897;51.126;5.868;2022-07-22T00:13:19;26.12;51.12
66962;HTU21D;53897;51.126;5.868;2022-07-22T00:15:44;26.11;51.11
66962;HTU21D;53897;51.126;5.868;2022-07-22T00:18:10;26.11;51.08
66962;HTU21D;53897;51.126;5.868;2022-07-22T00:20:36;26.10;51.07
66962;HTU21D;53897;51.126;5.868;2022-07-22T00:23:02;26.10;51.02
66962;HTU21D;53897;51.126;5.868;2022-07-22T00:25:27;26.11;51.04
66962;HTU21D;53897;51.126;5.868;2022-07-22T00:27:54;26.10;51.04
66962;HTU21D;53897;51.126;5.868;2022-07-22T00:30:20;26.11;50.98
66962;HTU21D;53897;51.126;5.868;2022-07-22T00:32:46;26.10;50.95
66962;HTU21D;53897;51.126;5.868;2022-07-22T00:35:13;26.10;50.94
66962;HTU21D;53897;51.126;5.868;2022-07-22T00:37:38;26.10;50.89
66962;HTU21D;53897;51.126;5.868;2022-07-22T00:40:05;26.11;50.86
66962;HTU21D;53897;51.126;5.868;2022-07-22T00:42:31;26.10;50.87
66962;HTU21D;53897;51.126;5.868;2022-07-22T00:44:57;26.09;50.82
66962;HTU21D;53897;51.126;5.868;2022-07-22T00:47:23;26.09;50.80
66962;HTU21D;53897;51.126;5.868;2022-07-22T00:49:49;26.09;50.76
66962;HTU21D;53897;51.126;5.868;2022-07-22T00:52:15;26.09;50.69
66962;HTU21D;53897;51.126;5.868;2022-07-22T00:54:41;26.09;50.66
66962;HTU21D;53897;51.126;5.868;2022-07-22T00:57:07;26.09;50.63
66962;HTU21D;53897;51.126;5.868;2022-07-22T00:59:33;26.09;50.60
66962;HTU21D;53897;51.126;5.868;2022-07-22T01:02:00;26.10;50.58
66962;HTU21D;53897;51.126;5.868;2022-07-22T01:04:26;26.07;50.53
66962;HTU21D;53897;51.126;5.868;2022-07-22T01:06:52;26.08;50.53
66962;HTU21D;53897;51.126;5.868;2022-07-22T01:09:18;26.08;50.50
66962;HTU21D;53897;51.126;5.868;2022-07-22T01:11:44;26.08;50.49
66962;HTU21D;53897;51.126;5.868;2022-07-22T01:14:10;26.06;50.50
66962;HTU21D;53897;51.126;5.868;2022-07-22T01:16:35;26.06;50.45
66962;HTU21D;53897;51.126;5.868;2022-07-22T01:19:02;26.07;50.50
66962;HTU21D;53897;51.126;5.868;2022-07-22T01:21:28;26.07;50.46
66962;HTU21D;53897;51.126;5.868;2022-07-22T01:23:55;26.05;50.44
66962;HTU21D;53897;51.126;5.868;2022-07-22T01:26:21;26.06;50.41
66962;HTU21D;53897;51.126;5.868;2022-07-22T01:28:46;26.06;50.40
66962;HTU21D;53897;51.126;5.868;2022-07-22T01:31:12;26.06;50.37
66962;HTU21D;53897;51.126;5.868;2022-07-22T01:33:38;26.06;50.37
66962;HTU21D;53897;51.126;5.868;2022-07-22T01:36:05;26.06;50.32
66962;HTU21D;53897;51.126;5.868;2022-07-22T01:38:31;26.04;50.29
66962;HTU21D;53897;51.126;5.868;2022-07-22T01:40:57;26.06;50.27
66962;HTU21D;53897;51.126;5.868;2022-07-22T01:43:23;26.05;50.25
66962;HTU21D;53897;51.126;5.868;2022-07-22T01:45:50;26.05;50.24
66962;HTU21D;53897;51.126;5.868;2022-07-22T01:48:17;26.05;50.19
66962;HTU21D;53897;51.126;5.868;2022-07-22T01:50:43;26.05;50.18
66962;HTU21D;53897;51.126;5.868;2022-07-22T01:53:09;26.04;50.16
66962;HTU21D;53897;51.126;5.868;2022-07-22T01:55:35;26.04;50.16
66962;HTU21D;53897;51.126;5.868;2022-07-22T01:58:01;26.04;50.15
66962;HTU21D;53897;51.126;5.868;2022-07-22T02:00:32;26.04;50.13
66962;HTU21D;53897;51.126;5.868;2022-07-22T02:02:59;26.04;50.11
66962;HTU21D;53897;51.126;5.868;2022-07-22T02:05:26;26.03;50.08
66962;HTU21D;53897;51.126;5.868;2022-07-22T02:07:59;26.03;50.05
66962;HTU21D;53897;51.126;5.868;2022-07-22T02:10:26;26.03;50.07
66962;HTU21D;53897;51.126;5.868;2022-07-22T02:12:52;26.03;50.04
66962;HTU21D;53897;51.126;5.868;2022-07-22T02:15:18;26.03;49.98
66962;HTU21D;53897;51.126;5.868;2022-07-22T02:17:45;26.02;49.96
66962;HTU21D;53897;51.126;5.868;2022-07-22T02:20:11;26.01;49.97
66962;HTU21D;53897;51.126;5.868;2022-07-22T02:22:37;26.02;49.95
66962;HTU21D;53897;51.126;5.868;2022-07-22T02:25:03;26.01;49.93
66962;HTU21D;53897;51.126;5.868;2022-07-22T02:27:28;25.98;49.92
66962;HTU21D;53897;51.126;5.868;2022-07-22T02:29:55;25.97;49.91
66962;HTU21D;53897;51.126;5.868;2022-07-22T02:32:21;25.97;49.89
66962;HTU21D;53897;51.126;5.868;2022-07-22T02:34:47;25.98;49.89
66962;HTU21D;53897;51.126;5.868;2022-07-22T02:37:13;25.95;49.86
66962;HTU21D;53897;51.126;5.868;2022-07-22T02:39:39;25.96;49.85
66962;HTU21D;53897;51.126;5.868;2022-07-22T02:42:05;25.95;49.82
66962;HTU21D;53897;51.126;5.868;2022-07-22T02:44:31;25.95;49.81
66962;HTU21D;53897;51.126;5.868;2022-07-22T02:46:57;25.93;49.81
66962;HTU21D;53897;51.126;5.868;2022-07-22T02:49:28;25.93;49.78
66962;HTU21D;53897;51.126;5.868;2022-07-22T02:51:55;25.92;49.78
66962;HTU21D;53897;51.126;5.868;2022-07-22T02:54:21;25.93;49.75
66962;HTU21D;53897;51.126;5.868;2022-07-22T02:56:48;25.91;49.75
66962;HTU21D;53897;51.126;5.868;2022-07-22T02:59:14;25.91;49.74
66962;HTU21D;53897;51.126;5.868;2022-07-22T03:01:40;25.92;49.78
66962;HTU21D;53897;51.126;5.868;2022-07-22T03:04:06;25.91;49.80
66962;HTU21D;53897;51.126;5.868;2022-07-22T03:06:34;25.92;49.82
66962;HTU21D;53897;51.126;5.868;2022-07-22T03:09:07;25.90;49.85
66962;HTU21D;53897;51.126;5.868;2022-07-22T03:11:35;25.91;49.85
66962;HTU21D;53897;51.126;5.868;2022-07-22T03:14:01;25.91;49.85
66962;HTU21D;53897;51.126;5.868;2022-07-22T03:16:27;25.90;49.84
66962;HTU21D;53897;51.126;5.868;2022-07-22T03:18:55;25.91;49.84
66962;HTU21D;53897;51.126;5.868;2022-07-22T03:21:20;25.91;49.83
66962;HTU21D;53897;51.126;5.868;2022-07-22T03:23:48;25.91;49.82
66962;HTU21D;53897;51.126;5.868;2022-07-22T03:26:20;25.91;49.79
66962;HTU21D;53897;51.126;5.868;2022-07-22T03:28:47;25.91;49.78
66962;HTU21D;53897;51.126;5.868;2022-07-22T03:31:14;25.91;49.76
66962;HTU21D;53897;51.126;5.868;2022-07-22T03:33:39;25.91;49.75
66962;HTU21D;53897;51.126;5.868;2022-07-22T03:36:07;25.91;49.73
66962;HTU21D;53897;51.126;5.868;2022-07-22T03:38:34;25.91;49.72
66962;HTU21D;53897;51.126;5.868;2022-07-22T03:41:00;25.90;49.69
66962;HTU21D;53897;51.126;5.868;2022-07-22T03:43:27;25.92;49.69
66962;HTU21D;53897;51.126;5.868;2022-07-22T03:45:53;25.91;49.69
66962;HTU21D;53897;51.126;5.868;2022-07-22T03:48:19;25.91;49.67
66962;HTU21D;53897;51.126;5.868;2022-07-22T03:50:45;25.92;49.65
66962;HTU21D;53897;51.126;5.868;2022-07-22T03:53:10;25.92;49.66
66962;HTU21D;53897;51.126;5.868;2022-07-22T03:55:39;25.92;49.61
66962;HTU21D;53897;51.126;5.868;2022-07-22T03:58:05;25.92;49.59
66962;HTU21D;53897;51.126;5.868;2022-07-22T04:00:32;25.91;49.64
66962;HTU21D;53897;51.126;5.868;2022-07-22T04:03:00;25.91;49.66
66962;HTU21D;53897;51.126;5.868;2022-07-22T04:05:41;25.89;49.73
66962;HTU21D;53897;51.126;5.868;2022-07-22T04:08:07;25.87;49.77
66962;HTU21D;53897;51.126;5.868;2022-07-22T04:10:33;25.84;49.81
66962;HTU21D;53897;51.126;5.868;2022-07-22T04:12:59;25.82;49.85
66962;HTU21D;53897;51.126;5.868;2022-07-22T04:15:50;25.80;49.85
66962;HTU21D;53897;51.126;5.868;2022-07-22T04:18:16;25.80;49.89
66962;HTU21D;53897;51.126;5.868;2022-07-22T04:20:43;25.77;49.87
66962;HTU21D;53897;51.126;5.868;2022-07-22T04:23:21;25.79;49.76
66962;HTU21D;53897;51.126;5.868;2022-07-22T04:25:48;25.82;49.68
66962;HTU21D;53897;51.126;5.868;2022-07-22T04:28:14;25.83;49.62
66962;HTU21D;53897;51.126;5.868;2022-07-22T04:30:41;25.87;49.53
66962;HTU21D;53897;51.126;5.868;2022-07-22T04:33:07;25.88;49.48
66962;HTU21D;53897;51.126;5.868;2022-07-22T04:35:33;25.88;49.42
66962;HTU21D;53897;51.126;5.868;2022-07-22T04:38:12;25.90;49.37
66962;HTU21D;53897;51.126;5.868;2022-07-22T04:40:41;25.91;49.39
66962;HTU21D;53897;51.126;5.868;2022-07-22T04:43:06;25.92;49.39
66962;HTU21D;53897;51.126;5.868;2022-07-22T04:45:32;25.92;49.46
66962;HTU21D;53897;51.126;5.868;2022-07-22T04:47:58;25.91;49.40
66962;HTU21D;53897;51.126;5.868;2022-07-22T04:50:24;25.92;49.45
66962;HTU21D;53897;51.126;5.868;2022-07-22T04:52:58;25.92;49.41
66962;HTU21D;53897;51.126;5.868;2022-07-22T04:55:26;25.93;49.38
66962;HTU21D;53897;51.126;5.868;2022-07-22T04:57:52;25.92;49.38
66962;HTU21D;53897;51.126;5.868;2022-07-22T05:00:18;25.92;49.35
66962;HTU21D;53897;51.126;5.868;2022-07-22T05:02:50;25.92;49.33
66962;HTU21D;53897;51.126;5.868;2022-07-22T05:05:17;25.92;49.31
66962;HTU21D;53897;51.126;5.868;2022-07-22T05:07:43;25.93;49.30
66962;HTU21D;53897;51.126;5.868;2022-07-22T05:10:09;25.92;49.28
66962;HTU21D;53897;51.126;5.868;2022-07-22T05:12:35;25.92;49.33
66962;HTU21D;53897;51.126;5.868;2022-07-22T05:15:01;25.91;49.34
66962;HTU21D;53897;51.126;5.868;2022-07-22T05:17:28;25.91;49.30
66962;HTU21D;53897;51.126;5.868;2022-07-22T05:20:05;25.91;49.29
66962;HTU21D;53897;51.126;5.868;2022-07-22T05:22:31;25.91;49.25
66962;HTU21D;53897;51.126;5.868;2022-07-22T05:24:59;25.92;49.25
66962;HTU21D;53897;51.126;5.868;2022-07-22T05:27:24;25.91;49.21
66962;HTU21D;53897;51.126;5.868;2022-07-22T05:29:50;25.92;49.29
66962;HTU21D;53897;51.126;5.868;2022-07-22T05:32:16;25.92;49.29
66962;HTU21D;53897;51.126;5.868;2022-07-22T05:34:42;25.91;49.31
66962;HTU21D;53897;51.126;5.868;2022-07-22T05:37:08;25.91;49.29
66962;HTU21D;53897;51.126;5.868;2022-07-22T05:39:34;25.91;49.37
66962;HTU21D;53897;51.126;5.868;2022-07-22T05:42:00;25.90;49.48
66962;HTU21D;53897;51.126;5.868;2022-07-22T05:44:26;25.89;49.53
66962;HTU21D;53897;51.126;5.868;2022-07-22T05:46:51;25.90;49.51
66962;HTU21D;53897;51.126;5.868;2022-07-22T05:49:17;25.90;49.56
66962;HTU21D;53897;51.126;5.868;2022-07-22T05:51:52;25.88;49.56
66962;HTU21D;53897;51.126;5.868;2022-07-22T05:54:19;25.88;49.56
66962;HTU21D;53897;51.126;5.868;2022-07-22T05:56:45;25.86;49.59
66962;HTU21D;53897;51.126;5.868;2022-07-22T05:59:10;25.87;49.59
66962;HTU21D;53897;51.126;5.868;2022-07-22T06:01:36;25.86;49.58
66962;HTU21D;53897;51.126;5.868;2022-07-22T06:04:14;25.86;49.54
66962;HTU21D;53897;51.126;5.868;2022-07-22T06:06:40;25.87;49.54
66962;HTU21D;53897;51.126;5.868;2022-07-22T06:09:05;25.84;49.50
66962;HTU21D;53897;51.126;5.868;2022-07-22T06:11:31;25.86;49.50
66962;HTU21D;53897;51.126;5.868;2022-07-22T06:13:57;25.86;49.44
66962;HTU21D;53897;51.126;5.868;2022-07-22T06:16:23;25.88;49.38
66962;HTU21D;53897;51.126;5.868;2022-07-22T06:18:53;25.89;49.36
66962;HTU21D;53897;51.126;5.868;2022-07-22T06:21:19;25.89;49.31
66962;HTU21D;53897;51.126;5.868;2022-07-22T06:23:44;25.88;49.28
66962;HTU21D;53897;51.126;5.868;2022-07-22T06:26:10;25.90;49.24
66962;HTU21D;53897;51.126;5.868;2022-07-22T06:28:36;25.89;49.19
66962;HTU21D;53897;51.126;5.868;2022-07-22T06:31:03;25.90;49.14
66962;HTU21D;53897;51.126;5.868;2022-07-22T06:33:29;25.90;49.13
66962;HTU21D;53897;51.126;5.868;2022-07-22T06:35:56;25.90;49.10
66962;HTU21D;53897;51.126;5.868;2022-07-22T06:38:23;25.91;49.08
66962;HTU21D;53897;51.126;5.868;2022-07-22T06:41:09;25.91;49.04
66962;HTU21D;53897;51.126;5.868;2022-07-22T06:43:46;25.92;48.97
66962;HTU21D;53897;51.126;5.868;2022-07-22T06:46:31;25.92;48.95
66962;HTU21D;53897;51.126;5.868;2022-07-22T06:48:57;25.91;48.91
66962;HTU21D;53897;51.126;5.868;2022-07-22T06:51:22;25.91;48.88
66962;HTU21D;53897;51.126;5.868;2022-07-22T06:53:48;25.91;48.88
66962;HTU21D;53897;51.126;5.868;2022-07-22T06:56:14;25.90;48.87
66962;HTU21D;53897;51.126;5.868;2022-07-22T06:58:40;25.91;48.85
66962;HTU21D;53897;51.126;5.868;2022-07-22T07:01:06;25.91;48.79
66962;HTU21D;53897;51.126;5.868;2022-07-22T07:03:39;25.91;48.78
66962;HTU21D;53897;51.126;5.868;2022-07-22T07:06:09;25.89;48.86
66962;HTU21D;53897;51.126;5.868;2022-07-22T07:09:02;25.90;48.89
66962;HTU21D;53897;51.126;5.868;2022-07-22T07:11:28;25.91;48.90
66962;HTU21D;53897;51.126;5.868;2022-07-22T07:13:55;25.90;48.91
66962;HTU21D;53897;51.126;5.868;2022-07-22T07:16:20;25.92;48.88
66962;HTU21D;53897;51.126;5.868;2022-07-22T07:18:46;25.91;48.88
66962;HTU21D;53897;51.126;5.868;2022-07-22T07:21:12;25.93;48.89
66962;HTU21D;53897;51.126;5.868;2022-07-22T07:23:38;25.92;48.91
66962;HTU21D;53897;51.126;5.868;2022-07-22T07:26:03;25.92;48.94
66962;HTU21D;53897;51.126;5.868;2022-07-22T07:28:30;25.93;48.91
66962;HTU21D;53897;51.126;5.868;2022-07-22T07:31:02;25.93;48.88
66962;HTU21D;53897;51.126;5.868;2022-07-22T07:33:29;25.94;48.85
66962;HTU21D;53897;51.126;5.868;2022-07-22T07:35:54;25.95;48.81
66962;HTU21D;53897;51.126;5.868;2022-07-22T07:38:30;25.94;48.82
66962;HTU21D;53897;51.126;5.868;2022-07-22T07:40:56;25.94;48.79
66962;HTU21D;53897;51.126;5.868;2022-07-22T07:43:22;25.95;48.80
66962;HTU21D;53897;51.126;5.868;2022-07-22T07:45:48;25.95;48.79
66962;HTU21D;53897;51.126;5.868;2022-07-22T07:48:14;25.95;48.76
66962;HTU21D;53897;51.126;5.868;2022-07-22T07:50:41;25.95;48.75
66962;HTU21D;53897;51.126;5.868;2022-07-22T07:53:07;25.95;48.74
66962;HTU21D;53897;51.126;5.868;2022-07-22T07:55:33;25.96;48.71
66962;HTU21D;53897;51.126;5.868;2022-07-22T07:58:02;25.97;48.70
66962;HTU21D;53897;51.126;5.868;2022-07-22T08:00:28;25.97;48.68
66962;HTU21D;53897;51.126;5.868;2022-07-22T08:02:56;25.96;48.65
66962;HTU21D;53897;51.126;5.868;2022-07-22T08:05:23;25.96;48.63
66962;HTU21D;53897;51.126;5.868;2022-07-22T08:07:49;25.96;48.63
66962;HTU21D;53897;51.126;5.868;2022-07-22T08:10:16;25.97;48.64
66962;HTU21D;53897;51.126;5.868;2022-07-22T08:13:10;25.96;48.62
66962;HTU21D;53897;51.126;5.868;2022-07-22T08:15:59;25.99;48.58
66962;HTU21D;53897;51.126;5.868;2022-07-22T08:18:27;25.98;48.59
66962;HTU21D;53897;51.126;5.868;2022-07-22T08:20:53;25.98;48.61
66962;HTU21D;53897;51.126;5.868;2022-07-22T08:23:25;25.97;48.60
66962;HTU21D;53897;51.126;5.868;2022-07-22T08:25:51;25.97;48.59
66962;HTU21D;53897;51.126;5.868;2022-07-22T08:28:17;25.97;48.56
66962;HTU21D;53897;51.126;5.868;2022-07-22T08:30:43;25.95;48.57
66962;HTU21D;53897;51.126;5.868;2022-07-22T08:33:09;25.97;48.54
66962;HTU21D;53897;51.126;5.868;2022-07-22T08:35:37;25.97;48.56
66962;HTU21D;53897;51.126;5.868;2022-07-22T08:38:02;25.97;48.53
66962;HTU21D;53897;51.126;5.868;2022-07-22T08:40:28;25.96;48.53
66962;HTU21D;53897;51.126;5.868;2022-07-22T08:42:56;25.97;48.53
66962;HTU21D;53897;51.126;5.868;2022-07-22T08:45:23;25.98;48.51
66962;HTU21D;53897;51.126;5.868;2022-07-22T08:47:51;25.98;48.52
66962;HTU21D;53897;51.126;5.868;2022-07-22T08:50:34;25.98;48.60
66962;HTU21D;53897;51.126;5.868;2022-07-22T08:53:10;25.99;48.61
66962;HTU21D;53897;51.126;5.868;2022-07-22T08:55:46;26.01;48.59
66962;HTU21D;53897;51.126;5.868;2022-07-22T08:58:12;26.01;48.57
66962;HTU21D;53897;51.126;5.868;2022-07-22T09:00:39;25.99;48.55
66962;HTU21D;53897;51.126;5.868;2022-07-22T09:03:23;26.02;48.51
66962;HTU21D;53897;51.126;5.868;2022-07-22T09:05:53;26.02;48.51
66962;HTU21D;53897;51.126;5.868;2022-07-22T09:08:21;26.02;48.50
66962;HTU21D;53897;51.126;5.868;2022-07-22T09:11:15;26.02;48.52
66962;HTU21D;53897;51.126;5.868;2022-07-22T09:14:01;26.03;48.51
66962;HTU21D;53897;51.126;5.868;2022-07-22T09:16:44;26.03;48.52
66962;HTU21D;53897;51.126;5.868;2022-07-22T09:19:32;26.02;48.49
66962;HTU21D;53897;51.126;5.868;2022-07-22T09:25:34;26.03;48.52
66962;HTU21D;53897;51.126;5.868;2022-07-22T09:28:54;26.03;48.51
66962;HTU21D;53897;51.126;5.868;2022-07-22T09:31:35;26.04;48.51
66962;HTU21D;53897;51.126;5.868;2022-07-22T09:34:27;26.04;48.53
66962;HTU21D;53897;51.126;5.868;2022-07-22T09:36:55;26.06;48.54
66962;HTU21D;53897;51.126;5.868;2022-07-22T09:39:32;26.06;48.60
66962;HTU21D;53897;51.126;5.868;2022-07-22T09:42:02;26.06;48.61
66962;HTU21D;53897;51.126;5.868;2022-07-22T09:44:28;26.08;48.61
66962;HTU21D;53897;51.126;5.868;2022-07-22T09:46:57;26.08;48.57
66962;HTU21D;53897;51.126;5.868;2022-07-22T09:49:42;26.08;48.55
66962;HTU21D;53897;51.126;5.868;2022-07-22T09:52:36;26.10;48.56
66962;HTU21D;53897;51.126;5.868;2022-07-22T09:55:05;26.11;48.59
66962;HTU21D;53897;51.126;5.868;2022-07-22T09:57:31;26.12;48.60
66962;HTU21D;53897;51.126;5.868;2022-07-22T09:59:57;26.12;48.61
66962;HTU21D;53897;51.126;5.868;2022-07-22T10:02:50;26.15;48.63
66962;HTU21D;53897;51.126;5.868;2022-07-22T10:05:22;26.17;48.70
66962;HTU21D;53897;51.126;5.868;2022-07-22T10:07:50;26.17;48.79
66962;HTU21D;53897;51.126;5.868;2022-07-22T10:10:19;26.18;48.82
66962;HTU21D;53897;51.126;5.868;2022-07-22T10:12:48;26.18;48.85
66962;HTU21D;53897;51.126;5.868;2022-07-22T10:15:14;26.22;48.79
66962;HTU21D;53897;51.126;5.868;2022-07-22T10:17:43;26.22;48.82
66962;HTU21D;53897;51.126;5.868;2022-07-22T10:20:11;26.23;48.82
66962;HTU21D;53897;51.126;5.868;2022-07-22T10:25:13;26.22;48.81
66962;HTU21D;53897;51.126;5.868;2022-07-22T10:30:22;26.21;48.86
66962;HTU21D;53897;51.126;5.868;2022-07-22T10:33:03;26.22;48.87
66962;HTU21D;53897;51.126;5.868;2022-07-22T10:35:30;26.21;48.85
66962;HTU21D;53897;51.126;5.868;2022-07-22T10:38:04;26.21;48.85
66962;HTU21D;53897;51.126;5.868;2022-07-22T10:40:57;26.22;48.82
66962;HTU21D;53897;51.126;5.868;2022-07-22T10:43:27;26.22;48.81
66962;HTU21D;53897;51.126;5.868;2022-07-22T10:45:58;26.22;48.81
66962;HTU21D;53897;51.126;5.868;2022-07-22T10:48:45;26.21;48.82
66962;HTU21D;53897;51.126;5.868;2022-07-22T10:51:19;26.21;48.83
66962;HTU21D;53897;51.126;5.868;2022-07-22T10:54:00;26.21;48.81
66962;HTU21D;53897;51.126;5.868;2022-07-22T10:56:29;26.21;48.80
66962;HTU21D;53897;51.126;5.868;2022-07-22T10:58:59;26.21;48.80
66962;HTU21D;53897;51.126;5.868;2022-07-22T11:01:30;26.22;48.79
66962;HTU21D;53897;51.126;5.868;2022-07-22T11:06:36;26.22;48.79
66962;HTU21D;53897;51.126;5.868;2022-07-22T11:09:05;26.22;48.77
66962;HTU21D;53897;51.126;5.868;2022-07-22T11:11:42;26.23;48.76
66962;HTU21D;53897;51.126;5.868;2022-07-22T11:14:34;26.25;48.76
66962;HTU21D;53897;51.126;5.868;2022-07-22T11:17:06;26.24;48.75
66962;HTU21D;53897;51.126;5.868;2022-07-22T11:19:35;26.24;48.76
66962;HTU21D;53897;51.126;5.868;2022-07-22T11:22:07;26.24;48.76
66962;HTU21D;53897;51.126;5.868;2022-07-22T11:24:34;26.27;48.75
66962;HTU21D;53897;51.126;5.868;2022-07-22T11:27:02;26.26;48.73
66962;HTU21D;53897;51.126;5.868;2022-07-22T11:29:34;26.26;48.71
66962;HTU21D;53897;51.126;5.868;2022-07-22T11:32:06;26.26;48.69
66962;HTU21D;53897;51.126;5.868;2022-07-22T11:34:36;26.27;48.67
66962;HTU21D;53897;51.126;5.868;2022-07-22T11:37:03;26.27;48.64
66962;HTU21D;53897;51.126;5.868;2022-07-22T11:39:30;26.26;48.64
66962;HTU21D;53897;51.126;5.868;2022-07-22T11:41:57;26.28;48.68
66962;HTU21D;53897;51.126;5.868;2022-07-22T11:44:28;26.27;48.82
66962;HTU21D;53897;51.126;5.868;2022-07-22T11:46:55;26.28;49.22
66962;HTU21D;53897;51.126;5.868;2022-07-22T11:49:28;26.28;49.19
66962;HTU21D;53897;51.126;5.868;2022-07-22T11:51:55;26.30;49.26
66962;HTU21D;53897;51.126;5.868;2022-07-22T11:54:21;26.30;49.32
66962;HTU21D;53897;51.126;5.868;2022-07-22T11:56:48;26.31;49.39
66962;HTU21D;53897;51.126;5.868;2022-07-22T11:59:16;26.33;49.37
66962;HTU21D;53897;51.126;5.868;2022-07-22T12:01:45;26.34;49.43
66962;HTU21D;53897;51.126;5.868;2022-07-22T12:04:14;26.35;49.49
66962;HTU21D;53897;51.126;5.868;2022-07-22T12:06:42;26.37;49.56
66962;HTU21D;53897;51.126;5.868;2022-07-22T12:09:16;26.37;49.61
66962;HTU21D;53897;51.126;5.868;2022-07-22T12:11:46;26.39;49.68
66962;HTU21D;53897;51.126;5.868;2022-07-22T12:14:17;26.41;49.72
66962;HTU21D;53897;51.126;5.868;2022-07-22T12:16:54;26.45;49.78
66962;HTU21D;53897;51.126;5.868;2022-07-22T12:19:20;26.43;49.75
66962;HTU21D;53897;51.126;5.868;2022-07-22T12:22:03;26.46;49.75
66962;HTU21D;53897;51.126;5.868;2022-07-22T12:24:39;26.47;49.75
66962;HTU21D;53897;51.126;5.868;2022-07-22T12:27:07;26.48;49.76
66962;HTU21D;53897;51.126;5.868;2022-07-22T12:32:03;26.49;49.76
66962;HTU21D;53897;51.126;5.868;2022-07-22T12:34:38;26.50;49.76
66962;HTU21D;53897;51.126;5.868;2022-07-22T12:37:24;26.51;49.76
66962;HTU21D;53897;51.126;5.868;2022-07-22T12:40:18;26.51;49.76
66962;HTU21D;53897;51.126;5.868;2022-07-22T12:43:02;26.51;49.76
66962;HTU21D;53897;51.126;5.868;2022-07-22T12:45:30;26.52;49.73
66962;HTU21D;53897;51.126;5.868;2022-07-22T12:53:29;26.53;49.85
66962;HTU21D;53897;51.126;5.868;2022-07-22T12:55:58;26.54;50.00
66962;HTU21D;53897;51.126;5.868;2022-07-22T12:58:28;26.55;50.00
66962;HTU21D;53897;51.126;5.868;2022-07-22T13:00:56;26.57;49.97
66962;HTU21D;53897;51.126;5.868;2022-07-22T13:03:23;26.57;49.97
66962;HTU21D;53897;51.126;5.868;2022-07-22T13:05:54;26.60;49.94
66962;HTU21D;53897;51.126;5.868;2022-07-22T13:08:22;26.61;49.92
66962;HTU21D;53897;51.126;5.868;2022-07-22T13:10:51;26.63;49.93
66962;HTU21D;53897;51.126;5.868;2022-07-22T13:13:18;26.64;49.91
66962;HTU21D;53897;51.126;5.868;2022-07-22T13:15:44;26.65;49.91
66962;HTU21D;53897;51.126;5.868;2022-07-22T13:18:11;26.67;49.90
66962;HTU21D;53897;51.126;5.868;2022-07-22T13:20:37;26.67;49.91
66962;HTU21D;53897;51.126;5.868;2022-07-22T13:23:03;26.67;49.92
66962;HTU21D;53897;51.126;5.868;2022-07-22T13:25:29;26.68;49.95
66962;HTU21D;53897;51.126;5.868;2022-07-22T13:27:56;26.69;49.98
66962;HTU21D;53897;51.126;5.868;2022-07-22T13:30:22;26.70;49.97
66962;HTU21D;53897;51.126;5.868;2022-07-22T13:32:48;26.70;49.98
66962;HTU21D;53897;51.126;5.868;2022-07-22T13:35:14;26.72;49.97
66962;HTU21D;53897;51.126;5.868;2022-07-22T13:37:40;26.71;49.95
66962;HTU21D;53897;51.126;5.868;2022-07-22T13:40:07;26.73;49.88
66962;HTU21D;53897;51.126;5.868;2022-07-22T13:42:33;26.75;49.85
66962;HTU21D;53897;51.126;5.868;2022-07-22T13:44:59;26.76;49.90
66962;HTU21D;53897;51.126;5.868;2022-07-22T13:47:25;26.75;49.87
66962;HTU21D;53897;51.126;5.868;2022-07-22T13:49:53;26.78;49.90
66962;HTU21D;53897;51.126;5.868;2022-07-22T13:52:18;26.78;50.02
66962;HTU21D;53897;51.126;5.868;2022-07-22T13:54:45;26.78;50.19
66962;HTU21D;53897;51.126;5.868;2022-07-22T13:57:11;26.80;50.21
66962;HTU21D;53897;51.126;5.868;2022-07-22T13:59:37;26.82;50.15
66962;HTU21D;53897;51.126;5.868;2022-07-22T14:02:04;26.82;50.11
66962;HTU21D;53897;51.126;5.868;2022-07-22T14:04:30;26.83;50.22
66962;HTU21D;53897;51.126;5.868;2022-07-22T14:06:56;26.83;50.47
66962;HTU21D;53897;51.126;5.868;2022-07-22T14:09:22;26.85;50.96
66962;HTU21D;53897;51.126;5.868;2022-07-22T14:11:48;26.87;51.39
66962;HTU21D;53897;51.126;5.868;2022-07-22T14:14:14;26.86;51.75
66962;HTU21D;53897;51.126;5.868;2022-07-22T14:16:39;26.90;52.03
66962;HTU21D;53897;51.126;5.868;2022-07-22T14:19:08;26.91;52.01
66962;HTU21D;53897;51.126;5.868;2022-07-22T14:21:36;26.93;51.82
66962;HTU21D;53897;51.126;5.868;2022-07-22T14:24:03;26.94;51.75
66962;HTU21D;53897;51.126;5.868;2022-07-22T14:26:30;26.95;51.74
66962;HTU21D;53897;51.126;5.868;2022-07-22T14:28:56;26.96;51.65
66962;HTU21D;53897;51.126;5.868;2022-07-22T14:31:23;26.99;51.58
66962;HTU21D;53897;51.126;5.868;2022-07-22T14:33:48;26.99;51.69
66962;HTU21D;53897;51.126;5.868;2022-07-22T14:36:14;26.99;51.59
66962;HTU21D;53897;51.126;5.868;2022-07-22T14:38:40;27.00;51.35
66962;HTU21D;53897;51.126;5.868;2022-07-22T14:41:06;27.02;51.24
66962;HTU21D;53897;51.126;5.868;2022-07-22T14:43:34;27.05;51.14
66962;HTU21D;53897;51.126;5.868;2022-07-22T14:46:01;27.06;51.08
66962;HTU21D;53897;51.126;5.868;2022-07-22T14:48:28;27.04;51.08
66962;HTU21D;53897;51.126;5.868;2022-07-22T14:50:53;27.06;50.93
66962;HTU21D;53897;51.126;5.868;2022-07-22T14:53:19;27.08;50.92
66962;HTU21D;53897;51.126;5.868;2022-07-22T14:55:45;27.07;51.01
66962;HTU21D;53897;51.126;5.868;2022-07-22T14:58:11;27.08;51.10
66962;HTU21D;53897;51.126;5.868;2022-07-22T15:00:37;27.09;51.30
66962;HTU21D;53897;51.126;5.868;2022-07-22T15:03:03;27.11;51.46
66962;HTU21D;53897;51.126;5.868;2022-07-22T15:05:28;27.11;51.46
66962;HTU21D;53897;51.126;5.868;2022-07-22T15:07:54;27.13;51.46
66962;HTU21D;53897;51.126;5.868;2022-07-22T15:10:20;27.10;51.79
66962;HTU21D;53897;51.126;5.868;2022-07-22T15:12:46;27.07;52.02
66962;HTU21D;53897;51.126;5.868;2022-07-22T15:15:12;27.02;52.20
66962;HTU21D;53897;51.126;5.868;2022-07-22T15:17:39;27.02;52.19
66962;HTU21D;53897;51.126;5.868;2022-07-22T15:20:06;27.04;52.13
66962;HTU21D;53897;51.126;5.868;2022-07-22T15:22:33;27.04;52.23
66962;HTU21D;53897;51.126;5.868;2022-07-22T15:25:02;27.04;52.14
66962;HTU21D;53897;51.126;5.868;2022-07-22T15:27:28;27.07;52.03
66962;HTU21D;53897;51.126;5.868;2022-07-22T15:29:54;27.09;51.88
66962;HTU21D;53897;51.126;5.868;2022-07-22T15:32:20;27.12;51.62
66962;HTU21D;53897;51.126;5.868;2022-07-22T15:34:45;27.16;51.47
66962;HTU21D;53897;51.126;5.868;2022-07-22T15:37:11;27.17;51.39
66962;HTU21D;53897;51.126;5.868;2022-07-22T15:39:38;27.22;51.73
66962;HTU21D;53897;51.126;5.868;2022-07-22T15:42:04;27.24;51.81
66962;HTU21D;53897;51.126;5.868;2022-07-22T15:44:30;27.27;51.87